createdAt,value
2022-08-22T00:02:10.615Z,65.66
2022-08-22T00:02:56.593Z,62.56
2022-08-22T00:02:58.482Z,55.82
2022-08-22T00:03:00.232Z,56.05
2022-08-22T00:03:06.552Z,64.42
2022-08-22T00:03:08.827Z,64.54
2022-08-22T00:04:56.792Z,65.49
2022-08-22T00:07:50.329Z,65.46
2022-08-22T00:10:54.211Z,65.25
2022-08-22T00:13:40.873Z,65.25
2022-08-22T00:16:29.836Z,64.97
2022-08-22T00:19:25.807Z,65.41
2022-08-22T00:22:18.040Z,65.13
2022-08-22T00:25:25.829Z,65.63
2022-08-22T00:28:17.986Z,65.71
2022-08-22T00:31:16.746Z,65.55
2022-08-22T00:33:53.389Z,65.31
2022-08-22T00:36:25.674Z,65.43
2022-08-22T00:39:03.482Z,65.21
2022-08-22T00:41:45.005Z,66.03
2022-08-22T00:44:42.978Z,65.98
2022-08-22T00:47:33.968Z,66.43
2022-08-22T00:50:27.505Z,66.62
2022-08-22T00:53:17.503Z,66.75
2022-08-22T00:56:01.151Z,66.50
2022-08-22T00:59:10.627Z,66.41
2022-08-22T01:02:07.357Z,66.56
2022-08-22T01:05:09.738Z,66.68
2022-08-22T01:07:59.572Z,66.62
2022-08-22T01:10:44.582Z,66.86
2022-08-22T01:13:31.397Z,66.76
2022-08-22T01:16:28.032Z,66.96
2022-08-22T01:19:27.034Z,66.90
2022-08-22T01:22:24.889Z,67.13
2022-08-22T01:25:18.267Z,67.09
2022-08-22T01:28:02.874Z,66.92
2022-08-22T01:30:47.313Z,67.60
2022-08-22T01:33:37.934Z,67.87
2022-08-22T01:36:24.853Z,67.67
2022-08-22T01:39:12.969Z,68.03
2022-08-22T01:42:05.455Z,67.56
2022-08-22T01:45:11.295Z,67.66
2022-08-22T01:48:02.605Z,67.88
2022-08-22T01:50:45.577Z,68.12
2022-08-22T01:53:39.533Z,68.67
2022-08-22T01:56:15.101Z,68.79
2022-08-22T01:59:01.636Z,69.14
2022-08-22T02:01:49.823Z,69.05
2022-08-22T02:04:28.698Z,69.24
2022-08-22T02:07:31.846Z,69.49
2022-08-22T02:10:15.633Z,70.11
2022-08-22T02:12:45.553Z,69.25
2022-08-22T02:15:18.350Z,69.38
2022-08-22T02:17:54.744Z,69.99
2022-08-22T02:20:26.113Z,69.48
2022-08-22T02:23:08.570Z,69.67
2022-08-22T02:25:52.780Z,70.05
2022-08-22T02:28:37.928Z,70.12
2022-08-22T02:31:17.104Z,69.74
2022-08-22T02:33:46.555Z,69.98
2022-08-22T02:36:22.494Z,70.10
2022-08-22T02:38:54.524Z,70.04
2022-08-22T02:41:40.893Z,70.75
2022-08-22T02:44:24.354Z,71.08
2022-08-22T02:47:00.025Z,71.17
2022-08-22T02:50:00.270Z,71.52
2022-08-22T02:52:45.304Z,70.88
2022-08-22T02:55:21.241Z,70.06
2022-08-22T02:58:00.936Z,70.82
2022-08-22T03:00:31.565Z,71.50
2022-08-22T03:02:59.313Z,70.88
2022-08-22T03:05:28.583Z,70.80
2022-08-22T03:08:07.175Z,70.95
2022-08-22T03:10:39.349Z,71.15
2022-08-22T03:13:16.547Z,71.02
2022-08-22T03:15:55.662Z,71.12
2022-08-22T03:18:40.886Z,70.99
2022-08-22T03:21:22.054Z,71.06
2022-08-22T03:23:55.637Z,71.10
2022-08-22T03:26:41.840Z,71.42
2022-08-22T03:29:15.407Z,71.81
2022-08-22T03:32:13.032Z,71.87
2022-08-22T03:34:55.082Z,71.68
2022-08-22T03:37:31.700Z,71.98
2022-08-22T03:40:20.227Z,72.17
2022-08-22T03:43:17.957Z,71.93
2022-08-22T03:45:53.576Z,72.46
2022-08-22T03:48:38.752Z,72.40
2022-08-22T03:51:29.516Z,72.00
2022-08-22T03:54:44.005Z,72.22
2022-08-22T03:57:40.916Z,72.25
2022-08-22T04:00:35.820Z,71.97
2022-08-22T04:03:42.338Z,71.64
2022-08-22T04:06:45.657Z,71.69
2022-08-22T04:09:35.622Z,71.78
2022-08-22T04:12:17.694Z,71.58
2022-08-22T04:15:08.784Z,72.03
2022-08-22T04:18:03.263Z,72.27
2022-08-22T04:21:06.217Z,72.12
2022-08-22T04:23:57.680Z,72.25
2022-08-22T04:26:35.400Z,72.57
2022-08-22T04:29:16.872Z,72.40
2022-08-22T04:32:14.571Z,72.38
2022-08-22T04:34:53.080Z,72.48
2022-08-22T04:38:12.239Z,73.09
2022-08-22T04:40:52.220Z,73.07
2022-08-22T04:43:34.202Z,73.13
2022-08-22T04:46:11.242Z,73.45
2022-08-22T04:48:45.002Z,73.75
2022-08-22T04:51:33.172Z,73.52
2022-08-22T04:54:24.275Z,73.69
2022-08-22T04:57:05.645Z,73.30
2022-08-22T04:59:33.593Z,73.49
2022-08-22T05:02:06.274Z,73.43
2022-08-22T05:04:41.618Z,73.21
2022-08-22T05:07:18.557Z,73.21
2022-08-22T05:10:01.129Z,73.29
2022-08-22T05:12:43.541Z,73.42
2022-08-22T05:15:24.365Z,73.71
2022-08-22T05:17:58.012Z,73.33
2022-08-22T05:20:27.858Z,73.51
2022-08-22T05:23:17.606Z,73.31
2022-08-22T05:25:46.520Z,73.37
2022-08-22T05:28:26.896Z,73.12
2022-08-22T05:30:54.490Z,72.75
2022-08-22T05:33:29.935Z,72.94
2022-08-22T05:36:06.255Z,72.88
2022-08-22T05:38:37.963Z,72.67
2022-08-22T05:41:16.977Z,72.67
2022-08-22T05:43:44.580Z,72.44
2022-08-22T05:46:34.979Z,73.09
2022-08-22T05:49:03.899Z,72.92
2022-08-22T05:51:40.254Z,72.78
2022-08-22T05:54:14.300Z,72.40
2022-08-22T05:56:56.928Z,72.39
2022-08-22T05:59:32.840Z,72.17
2022-08-22T06:02:12.403Z,72.39
2022-08-22T06:04:54.659Z,72.20
2022-08-22T06:07:39.913Z,72.19
2022-08-22T06:10:17.663Z,72.51
2022-08-22T06:13:11.549Z,72.69
2022-08-22T06:15:47.284Z,72.23
2022-08-22T06:18:19.529Z,72.20
2022-08-22T06:20:54.681Z,72.84
2022-08-22T06:23:27.934Z,72.40
2022-08-22T06:25:59.329Z,72.21
2022-08-22T06:28:32.481Z,72.75
2022-08-22T06:31:00.939Z,72.27
2022-08-22T06:33:30.874Z,71.70
2022-08-22T06:36:33.646Z,72.03
2022-08-22T06:39:20.782Z,71.73
2022-08-22T06:41:54.588Z,71.90
2022-08-22T06:44:26.072Z,71.47
2022-08-22T06:46:58.350Z,71.00
2022-08-22T06:49:26.726Z,70.68
2022-08-22T06:51:59.901Z,70.67
2022-08-22T06:54:34.282Z,70.81
2022-08-22T06:57:03.461Z,70.79
2022-08-22T06:59:34.437Z,70.68
2022-08-22T07:02:16.441Z,70.92
2022-08-22T07:04:43.822Z,70.60
2022-08-22T07:07:10.395Z,69.83
2022-08-22T07:09:40.268Z,69.91
2022-08-22T07:12:21.762Z,69.53
2022-08-22T07:14:51.872Z,69.61
2022-08-22T07:17:22.633Z,68.91
2022-08-22T07:20:24.231Z,68.15
2022-08-22T07:23:02.529Z,67.86
2022-08-22T07:25:31.609Z,67.77
2022-08-22T07:28:15.904Z,67.72
2022-08-22T07:30:57.498Z,67.04
2022-08-22T07:33:47.146Z,66.18
2022-08-22T07:36:39.985Z,65.72
2022-08-22T07:39:14.001Z,65.12
2022-08-22T07:41:40.379Z,64.47
2022-08-22T07:44:18.085Z,63.32
2022-08-22T07:46:58.480Z,62.60
2022-08-22T07:49:32.422Z,62.94
2022-08-22T07:52:05.377Z,62.49
2022-08-22T07:54:47.188Z,61.60
2022-08-22T07:57:27.348Z,61.78
2022-08-22T07:59:57.949Z,62.65
2022-08-22T08:02:25.748Z,62.77
2022-08-22T08:04:55.059Z,62.64
2022-08-22T08:07:25.483Z,62.44
2022-08-22T08:09:57.763Z,62.43
2022-08-22T08:12:40.438Z,62.07
2022-08-22T08:15:15.235Z,61.94
2022-08-22T08:17:44.402Z,61.38
2022-08-22T08:20:15.994Z,60.95
2022-08-22T08:22:45.516Z,60.09
2022-08-22T08:25:21.375Z,59.27
2022-08-22T08:28:08.290Z,59.19
2022-08-22T08:30:40.602Z,58.72
2022-08-22T08:33:25.547Z,58.54
2022-08-22T08:36:03.927Z,57.22
2022-08-22T08:39:10.115Z,55.87
2022-08-22T08:41:59.552Z,54.40
2022-08-22T08:44:48.511Z,53.28
2022-08-22T08:47:42.340Z,52.29
2022-08-22T08:50:43.820Z,51.10
2022-08-22T08:53:44.137Z,50.92
2022-08-22T08:56:25.545Z,49.71
2022-08-22T09:02:20.429Z,50.33
2022-08-22T09:05:02.826Z,48.71
2022-08-22T09:07:55.525Z,48.78
2022-08-22T09:10:37.301Z,48.50
2022-08-22T09:13:28.133Z,48.62
2022-08-22T09:16:04.829Z,48.91
2022-08-22T09:18:39.101Z,48.41
2022-08-22T09:21:30.815Z,46.18
2022-08-22T09:24:16.789Z,46.02
2022-08-22T09:26:57.120Z,45.75
2022-08-22T09:29:55.346Z,47.30
2022-08-22T09:33:09.685Z,45.99
2022-08-22T09:36:05.126Z,45.99
2022-08-22T09:38:59.777Z,41.39
2022-08-22T09:40:15.241Z,50.50
2022-08-22T09:41:41.383Z,42.20
2022-08-22T09:44:20.150Z,42.33
2022-08-22T09:47:05.285Z,40.69
2022-08-22T09:50:06.485Z,40.25
2022-08-22T09:53:09.257Z,39.24
2022-08-22T09:55:35.910Z,39.73
2022-08-22T09:58:23.389Z,38.96
2022-08-22T10:00:58.407Z,39.38
2022-08-22T10:04:09.599Z,38.74
2022-08-22T10:06:46.076Z,36.52
2022-08-22T10:09:31.543Z,36.55
2022-08-22T10:12:12.927Z,35.51
2022-08-22T10:14:50.627Z,35.90
2022-08-22T10:17:26.995Z,35.01
2022-08-22T10:20:14.394Z,34.95
2022-08-22T10:23:10.490Z,33.44
2022-08-22T10:25:42.502Z,34.45
2022-08-22T10:28:19.257Z,34.11
2022-08-22T10:30:49.026Z,33.65
2022-08-22T10:33:31.601Z,32.53
2022-08-22T10:36:07.940Z,32.90
2022-08-22T10:38:54.663Z,32.59
2022-08-22T10:41:30.464Z,33.78
2022-08-22T10:44:15.002Z,32.94
2022-08-22T10:46:48.509Z,33.20
2022-08-22T10:49:36.372Z,32.88
2022-08-22T10:52:17.744Z,32.56
2022-08-22T10:55:00.665Z,33.24
2022-08-22T10:57:58.992Z,33.17
2022-08-22T11:00:46.193Z,32.21
2022-08-22T11:03:39.569Z,31.81
2022-08-22T11:06:14.594Z,31.84
2022-08-22T11:09:02.472Z,32.86
2022-08-22T11:11:41.758Z,31.88
2022-08-22T11:14:29.939Z,32.17
2022-08-22T11:17:31.077Z,32.57
2022-08-22T11:20:16.461Z,32.21
2022-08-22T11:22:55.740Z,32.55
2022-08-22T11:25:38.580Z,33.02
2022-08-22T11:28:31.242Z,32.34
2022-08-22T11:31:37.770Z,32.73
2022-08-22T11:34:28.022Z,32.39
2022-08-22T11:37:03.999Z,32.04
2022-08-22T11:39:40.919Z,32.43
2022-08-22T11:42:21.940Z,31.36
2022-08-22T11:44:59.473Z,32.33
2022-08-22T11:47:33.631Z,32.32
2022-08-22T11:50:35.202Z,31.77
2022-08-22T11:53:41.945Z,32.64
2022-08-22T11:56:20.138Z,33.35
2022-08-22T11:59:09.675Z,31.78
2022-08-22T12:01:46.784Z,31.43
2022-08-22T12:04:33.668Z,30.00
2022-08-22T12:07:15.998Z,29.94
2022-08-22T12:09:51.906Z,31.07
2022-08-22T12:12:27.676Z,31.04
2022-08-22T12:15:09.001Z,31.35
2022-08-22T12:18:20.003Z,29.40
2022-08-22T12:21:27.968Z,27.17
2022-08-22T12:24:22.850Z,29.77
2022-08-22T12:27:01.769Z,30.26
2022-08-22T12:29:44.775Z,30.96
2022-08-22T12:32:27.746Z,31.02
2022-08-22T12:35:14.117Z,31.34
2022-08-22T12:37:59.596Z,32.62
2022-08-22T12:40:48.089Z,33.14
2022-08-22T12:43:27.359Z,32.66
2022-08-22T12:46:18.022Z,32.61
2022-08-22T12:49:12.608Z,33.23
2022-08-22T12:51:49.878Z,31.01
2022-08-22T12:55:06.625Z,30.19
2022-08-22T12:57:50.334Z,31.17
2022-08-22T13:00:38.016Z,31.78
2022-08-22T13:03:10.798Z,31.24
2022-08-22T13:05:43.687Z,32.51
2022-08-22T13:08:17.547Z,32.79
2022-08-22T13:11:01.411Z,33.00
2022-08-22T13:13:56.598Z,31.75
2022-08-22T13:16:34.241Z,31.43
2022-08-22T13:19:25.389Z,31.35
2022-08-22T13:22:07.178Z,32.53
2022-08-22T13:24:40.297Z,33.06
2022-08-22T13:27:25.505Z,32.17
2022-08-22T13:30:00.774Z,33.26
2022-08-22T13:32:35.289Z,34.11
2022-08-22T13:35:07.555Z,35.14
2022-08-22T13:37:44.130Z,33.82
2022-08-22T13:40:15.375Z,34.79
2022-08-22T13:42:49.287Z,34.10
2022-08-22T13:45:27.254Z,34.45
2022-08-22T13:48:08.873Z,35.07
2022-08-22T13:51:10.539Z,35.07
2022-08-22T13:54:00.522Z,33.40
2022-08-22T13:56:43.526Z,33.88
2022-08-22T13:59:50.167Z,33.81
2022-08-22T14:02:30.798Z,35.42
2022-08-22T14:05:04.253Z,34.47
2022-08-22T14:07:37.126Z,33.44
2022-08-22T14:10:12.602Z,33.82
2022-08-22T14:13:06.079Z,32.14
2022-08-22T14:15:44.940Z,33.10
2022-08-22T14:18:30.360Z,32.12
2022-08-22T14:21:40.604Z,29.02
2022-08-22T14:24:27.070Z,29.16
2022-08-22T14:26:53.821Z,28.16
2022-08-22T14:29:29.072Z,29.55
2022-08-22T14:32:22.704Z,28.06
2022-08-22T14:35:35.053Z,29.32
2022-08-22T14:38:29.789Z,29.10
2022-08-22T14:41:03.614Z,30.08
2022-08-22T14:43:30.028Z,30.60
2022-08-22T14:46:03.939Z,31.71
2022-08-22T14:48:40.634Z,32.29
2022-08-22T14:51:18.327Z,31.53
2022-08-22T14:53:48.266Z,30.38
2022-08-22T14:56:21.562Z,30.21
2022-08-22T14:58:59.848Z,31.50
2022-08-22T15:01:29.928Z,33.55
2022-08-22T15:04:11.222Z,33.53
2022-08-22T15:06:50.750Z,34.78
2022-08-22T15:09:31.139Z,34.20
2022-08-22T15:11:58.088Z,35.01
2022-08-22T15:14:48.889Z,35.45
2022-08-22T15:17:35.576Z,35.20
2022-08-22T15:20:36.392Z,34.78
2022-08-22T15:23:22.934Z,34.34
2022-08-22T15:26:23.671Z,35.06
2022-08-22T15:29:02.226Z,35.69
2022-08-22T15:31:31.445Z,34.66
2022-08-22T15:34:08.036Z,35.01
2022-08-22T15:36:36.027Z,34.76
2022-08-22T15:39:35.250Z,34.41
2022-08-22T15:42:05.182Z,34.80
2022-08-22T15:44:35.464Z,34.88
2022-08-22T15:47:27.763Z,35.48
2022-08-22T15:50:02.316Z,35.43
2022-08-22T15:52:35.758Z,35.96
2022-08-22T15:55:15.884Z,36.14
2022-08-22T15:57:50.964Z,35.55
2022-08-22T16:00:31.271Z,35.54
2022-08-22T16:03:03.849Z,35.98
2022-08-22T16:05:55.479Z,35.00
2022-08-22T16:08:37.237Z,35.84
2022-08-22T16:11:03.633Z,36.70
2022-08-22T16:13:30.125Z,38.40
2022-08-22T16:16:06.935Z,38.65
2022-08-22T16:18:33.431Z,37.83
2022-08-22T16:21:07.988Z,37.76
2022-08-22T16:23:57.946Z,39.16
2022-08-22T16:26:31.321Z,39.40
2022-08-22T16:29:03.517Z,38.70
2022-08-22T16:31:42.710Z,38.96
2022-08-22T16:34:23.818Z,39.54
2022-08-22T16:37:08.897Z,40.25
2022-08-22T16:39:48.877Z,40.04
2022-08-22T16:42:15.645Z,40.36
2022-08-22T16:44:47.797Z,39.58
2022-08-22T16:47:21.394Z,40.32
2022-08-22T16:49:51.045Z,39.99
2022-08-22T16:52:20.756Z,40.44
2022-08-22T16:54:58.635Z,41.22
2022-08-22T16:58:05.741Z,41.14
2022-08-22T17:00:51.037Z,40.76
2022-08-22T17:03:40.462Z,41.72
2022-08-22T17:06:32.117Z,41.61
2022-08-22T17:09:20.110Z,41.29
2022-08-22T17:12:26.011Z,41.49
2022-08-22T17:14:55.109Z,41.45
2022-08-22T17:17:21.611Z,41.33
2022-08-22T17:20:12.556Z,41.80
2022-08-22T17:23:01.608Z,41.88
2022-08-22T17:25:36.410Z,41.91
2022-08-22T17:28:05.529Z,42.18
2022-08-22T17:30:45.935Z,41.92
2022-08-22T17:33:48.805Z,42.13
2022-08-22T17:36:32.513Z,42.54
2022-08-22T17:39:10.128Z,42.71
2022-08-22T17:41:36.592Z,42.45
2022-08-22T17:44:11.915Z,43.02
2022-08-22T17:47:00.768Z,43.23
2022-08-22T17:49:48.631Z,43.68
2022-08-22T17:52:30.314Z,43.88
2022-08-22T17:55:27.250Z,43.88
2022-08-22T17:58:03.472Z,43.51
2022-08-22T18:00:37.174Z,43.54
2022-08-22T18:03:22.878Z,44.23
2022-08-22T18:06:05.879Z,43.98
2022-08-22T18:08:38.447Z,44.01
2022-08-22T18:11:28.135Z,44.70
2022-08-22T18:13:57.677Z,44.78
2022-08-22T18:16:34.897Z,44.74
2022-08-22T18:19:15.461Z,44.26
2022-08-22T18:21:58.223Z,45.52
2022-08-22T18:24:34.650Z,45.00
2022-08-22T18:27:32.605Z,45.17
2022-08-22T18:30:04.979Z,45.56
2022-08-22T18:32:41.217Z,45.83
2022-08-22T18:35:28.928Z,45.69
2022-08-22T18:38:19.310Z,46.34
2022-08-22T18:40:53.363Z,46.89
2022-08-22T18:43:45.023Z,47.54
2022-08-22T18:46:37.439Z,47.52
2022-08-22T18:49:24.102Z,48.15
2022-08-22T18:52:07.082Z,48.10
2022-08-22T18:54:47.957Z,48.83
2022-08-22T18:57:31.424Z,49.51
2022-08-22T19:00:16.636Z,50.26
2022-08-22T19:03:03.400Z,50.79
2022-08-22T19:06:07.342Z,49.82
2022-08-22T19:08:48.361Z,49.56
2022-08-22T19:11:52.528Z,49.53
2022-08-22T19:14:43.901Z,49.85
2022-08-22T19:17:31.940Z,49.61
2022-08-22T19:20:41.161Z,49.91
2022-08-22T19:23:37.061Z,50.65
2022-08-22T19:26:22.990Z,50.65
2022-08-22T19:28:55.965Z,50.94
2022-08-22T19:31:41.685Z,50.92
2022-08-22T19:34:29.482Z,51.12
2022-08-22T19:37:30.509Z,51.26
2022-08-22T19:40:29.295Z,51.32
2022-08-22T19:42:56.360Z,50.98
2022-08-22T19:45:28.747Z,51.52
2022-08-22T19:48:09.414Z,51.48
2022-08-22T19:50:39.094Z,50.76
2022-08-22T19:53:11.299Z,50.92
2022-08-22T19:55:37.719Z,51.05
2022-08-22T19:58:32.928Z,51.17
2022-08-22T20:01:30.809Z,51.08
2022-08-22T20:04:23.207Z,51.48
2022-08-22T20:07:25.013Z,52.23
2022-08-22T20:10:25.708Z,52.25
2022-08-22T20:12:52.190Z,52.79
2022-08-22T20:15:22.991Z,52.72
2022-08-22T20:20:56.061Z,52.47
2022-08-22T20:23:30.708Z,53.02
2022-08-22T20:25:58.586Z,53.25
2022-08-22T20:28:44.367Z,53.59
2022-08-22T20:31:20.845Z,53.71
2022-08-22T20:33:52.868Z,53.87
2022-08-22T20:36:27.938Z,54.06
2022-08-22T20:39:05.859Z,53.94
2022-08-22T20:41:40.302Z,54.33
2022-08-22T20:44:28.663Z,54.39
2022-08-22T20:47:04.435Z,54.48
2022-08-22T20:49:43.104Z,55.10
2022-08-22T20:52:26.251Z,55.37
2022-08-22T20:55:11.765Z,55.32
2022-08-22T20:57:51.103Z,55.75
2022-08-22T21:00:23.356Z,55.89
2022-08-22T21:03:07.487Z,56.26
2022-08-22T21:05:44.301Z,56.91
2022-08-22T21:08:24.161Z,57.20
2022-08-22T21:11:24.593Z,56.60
2022-08-22T21:13:52.090Z,57.13
2022-08-22T21:16:31.960Z,57.37
2022-08-22T21:19:01.517Z,57.29
2022-08-22T21:21:31.729Z,57.44
2022-08-22T21:24:05.604Z,57.67
2022-08-22T21:26:55.938Z,58.31
2022-08-22T21:29:32.693Z,58.11
2022-08-22T21:32:08.006Z,58.63
2022-08-22T21:34:41.224Z,59.11
2022-08-22T21:37:14.336Z,59.01
2022-08-22T21:39:47.932Z,59.04
2022-08-22T21:42:35.319Z,59.51
2022-08-22T21:45:06.523Z,59.26
2022-08-22T21:47:37.014Z,59.58
2022-08-22T21:50:12.586Z,59.86
2022-08-22T21:52:43.941Z,60.34
2022-08-22T21:55:26.224Z,60.57
2022-08-22T21:58:03.923Z,60.92
2022-08-22T22:00:48.839Z,61.32
2022-08-22T22:03:18.806Z,61.40
2022-08-22T22:05:45.786Z,61.48
2022-08-22T22:08:13.237Z,61.75
2022-08-22T22:10:42.653Z,62.06
2022-08-22T22:13:10.396Z,62.04
2022-08-22T22:15:42.302Z,62.43
2022-08-22T22:18:09.806Z,62.44
2022-08-22T22:20:36.789Z,62.76
2022-08-22T22:23:03.541Z,62.72
2022-08-22T22:25:39.737Z,63.14
2022-08-22T22:28:14.011Z,63.52
2022-08-22T22:30:42.016Z,63.44
2022-08-22T22:33:08.581Z,63.79
2022-08-22T22:35:37.921Z,64.07
2022-08-22T22:38:04.768Z,64.13
2022-08-22T22:40:31.392Z,64.46
2022-08-22T22:42:57.932Z,64.41
2022-08-22T22:45:24.404Z,64.88
2022-08-22T22:47:54.077Z,64.89
2022-08-22T22:50:20.585Z,64.79
2022-08-22T22:52:47.031Z,64.75
2022-08-22T22:55:24.220Z,65.44
2022-08-22T22:57:51.182Z,65.34
2022-08-22T23:00:30.664Z,65.32
2022-08-22T23:02:59.565Z,65.22
2022-08-22T23:05:26.001Z,65.81
2022-08-22T23:07:52.491Z,65.76
2022-08-22T23:10:22.119Z,65.97
2022-08-22T23:12:48.983Z,66.21
2022-08-22T23:15:15.573Z,66.23
2022-08-22T23:17:42.556Z,66.48
2022-08-22T23:20:09.345Z,66.69
2022-08-22T23:22:36.115Z,66.99
2022-08-22T23:25:02.659Z,67.45
2022-08-22T23:27:30.919Z,67.88
2022-08-22T23:29:57.398Z,68.13
2022-08-22T23:32:23.933Z,68.37
2022-08-22T23:34:51.213Z,68.46
2022-08-22T23:37:21.130Z,68.77
2022-08-22T23:39:50.281Z,69.42
2022-08-22T23:42:18.085Z,68.63
2022-08-22T23:44:45.885Z,68.96
2022-08-22T23:47:14.134Z,68.77
2022-08-22T23:49:41.818Z,69.29
2022-08-22T23:52:10.450Z,69.20
2022-08-22T23:54:37.064Z,69.49
2022-08-22T23:57:11.876Z,69.44
2022-08-22T23:59:46.231Z,69.71
